Flight Track Log - Related Links

Times and Time Zones

All times are in EST time to prevent confusion due to time zone crossing. See the SKW6195 flight status page for this flight to view local times or setup timezone preferences in your user account.

Time Position Orientation Groundspeed Altitude Reporting Facility
EST Latitude Longitude Course Direction KTS MPH feet Rate Location/Type
Wed 05:51:41 PM 49.1667 -123.2333 139° Southeast 160 184 1,500  Level Vancouver Center
Wed 05:52:41 PM 49.1667 -123.3167 270° West 200 230 3,900 2,450 Climbing Vancouver Center
Wed 05:53:41 PM 49.1333 -123.3833 233° Southwest 250 288 6,400 2,500 Climbing Vancouver Center
Wed 05:54:00 PM 48.9440 -122.4883 139° Southeast  Level Estimated
Wed 05:54:41 PM 49.0667 -123.3167 147° Southeast 280 322 8,900  Level Vancouver Center
Wed 05:55:00 PM 48.8487 -122.4461 117° Southeast  Level FlightAware Approximate
Wed 05:55:41 PM 49.0500 -123.1833 101° East 300 345 11,500  Level Vancouver Center
Wed 05:56:00 PM 48.7722 -122.3166 135° Southeast  Level FlightAware Approximate
Wed 05:56:41 PM 49.0167 -123.0833 117° Southeast 320 368 13,800  Level Vancouver Center
Wed 05:57:00 PM 48.6920 -122.1893 139° Southeast  Level FlightAware Approximate
Wed 05:57:41 PM 49.0000 -122.9333 100° East 330 380 16,100  Level Vancouver Center
Wed 05:58:41 PM 48.9667 -122.8000 111° Southeast 340 391 17,900 1,550 Climbing Vancouver Center
Wed 05:59:41 PM 48.9500 -122.6500 100° East 360 414 19,200 1,500 Climbing Vancouver Center
Wed 06:00:41 PM 48.9000 -122.5333 123° Southeast 380 437 20,900 1,750 Climbing Vancouver Center
Wed 06:01:41 PM 48.8500 -122.3500 112° Southeast 390 449 22,700 1,600 Climbing Vancouver Center
Wed 06:02:41 PM 48.8000 -122.2000 117° Southeast 400 460 24,100 1,350 Climbing Vancouver Center
Wed 06:03:41 PM 48.7333 -122.0500 124° Southeast 410 472 25,400 1,400 Climbing Vancouver Center
Wed 06:04:41 PM 48.6833 -121.9000 117° Southeast 420 483 26,900 1,333 Climbing Vancouver Center
Wed 06:05:11 PM 48.6822 -121.8467 92° East 422 486 27,400 1,100 Climbing Seattle Center
Wed 06:05:41 PM 48.6333 -121.7500 127° Southeast 430 495 28,000 1,033 Climbing Vancouver Center
Wed 06:07:13 PM 48.5697 -121.5203 113° Southeast 437 503 29,500 1,020 Climbing Seattle Center
Wed 06:08:14 PM 48.5086 -121.3492 118° Southeast 456 525 30,600 984 Climbing Seattle Center
Wed 06:09:15 PM 48.4483 -121.1778 118° Southeast 461 531 31,500 1,131 Climbing Seattle Center
Wed 06:10:16 PM 48.3758 -120.9733 118° Southeast 462 532 32,900 1,082 Climbing Seattle Center
Wed 06:11:17 PM 48.3178 -120.8083 118° Southeast 461 531 33,700 639 Climbing Seattle Center
Wed 06:12:18 PM 48.2550 -120.6364 119° Southeast 469 540 34,200 639 Climbing Seattle Center
Wed 06:13:19 PM 48.1919 -120.4608 118° Southeast 478 550 35,000 738 Climbing Seattle Center
Wed 06:14:20 PM 48.1283 -120.2881 119° Southeast 477 549 35,700 590 Climbing Seattle Center
Wed 06:15:21 PM 48.0633 -120.1128 119° Southeast 480 552 36,200 492 Climbing Seattle Center
Wed 06:16:22 PM 48.0000 -119.9361 118° Southeast 484 557 36,700 492 Climbing Seattle Center
Wed 06:17:23 PM 47.9333 -119.7606 119° Southeast 486 559 37,200 492 Climbing Seattle Center
Wed 06:18:24 PM 47.8664 -119.5844 119° Southeast 490 564 37,700 492 Climbing Seattle Center
Wed 06:19:25 PM 47.8008 -119.4089 119° Southeast 489 563 38,200 492 Climbing Seattle Center
Wed 06:20:26 PM 47.7375 -119.2356 118° Southeast 483 556 38,700 393 Climbing Seattle Center
Wed 06:21:27 PM 47.6583 -119.0297 120° Southeast 481 554 39,000 148 Climbing Seattle Center
Wed 06:22:28 PM 47.5919 -118.8561 120° Southeast 485 558 39,000  Level Seattle Center
Wed 06:23:29 PM 47.5233 -118.6792 120° Southeast 492 566 39,000  Level Seattle Center
Wed 06:24:30 PM 47.4544 -118.5017 120° Southeast 497 572 39,000  Level Seattle Center
Wed 06:25:31 PM 47.3844 -118.3244 120° Southeast 501 577 39,000  Level Seattle Center
Wed 06:26:32 PM 47.3156 -118.1489 120° Southeast 499 574 39,000  Level Seattle Center
Wed 06:27:33 PM 47.2453 -117.9733 120° Southeast 501 577 39,000  Level Seattle Center
Wed 06:28:34 PM 47.1764 -117.7981 120° Southeast 500 575 39,000  Level Seattle Center
Wed 06:29:35 PM 47.1067 -117.6261 121° Southeast 498 573 39,000  Level Seattle Center
Wed 06:30:36 PM 47.0372 -117.4544 121° Southeast 494 568 39,000  Level Seattle Center
Wed 06:31:37 PM 46.9525 -117.2456 121° Southeast 498 573 39,000  Level Seattle Center
Wed 06:32:38 PM 46.8814 -117.0731 121° Southeast 501 577 39,000  Level Seattle Center
Wed 06:33:39 PM 46.8106 -116.9008 121° Southeast 500 575 39,000  Level Seattle Center
Wed 06:34:40 PM 46.7394 -116.7275 121° Southeast 502 578 39,000  Level Seattle Center
Wed 06:35:41 PM 46.6675 -116.5558 121° Southeast 500 575 39,000  Level Seattle Center
Wed 06:36:42 PM 46.5956 -116.3825 121° Southeast 501 577 39,000  Level Seattle Center
Wed 06:37:43 PM 46.5222 -116.2111 122° Southeast 502 578 39,000  Level Seattle Center
Wed 06:38:44 PM 46.4494 -116.0417 122° Southeast 500 575 39,000  Level Seattle Center
Wed 06:39:45 PM 46.3761 -115.8706 122° Southeast 501 577 39,000  Level Seattle Center
Wed 06:40:46 PM 46.3028 -115.7008 122° Southeast 501 577 39,000  Level Seattle Center
Wed 06:41:47 PM 46.2153 -115.4986 122° Southeast 498 573 39,000  Level Seattle Center
Wed 06:42:48 PM 46.1414 -115.3303 122° Southeast 497 572 39,000  Level Seattle Center
Wed 06:43:27 PM 46.0975 -115.2311 123° Southeast 496 571 39,000  Level Salt Lake Center
Wed 06:44:29 PM 46.0161 -115.0464 122° Southeast 494 568 39,000  Level Salt Lake Center
Wed 06:45:31 PM 45.9417 -114.8792 123° Southeast 496 571 39,000  Level Salt Lake Center
Wed 06:46:32 PM 45.8672 -114.7119 123° Southeast 496 571 39,000  Level Salt Lake Center
Wed 06:47:34 PM 45.7911 -114.5428 123° Southeast 502 578 39,000  Level Salt Lake Center
Wed 06:48:36 PM 45.7158 -114.3775 123° Southeast 498 573 39,000  Level Salt Lake Center
Wed 06:49:37 PM 45.6333 -114.1936 123° Southeast 498 573 39,000  Level Salt Lake Center
Wed 06:50:39 PM 45.5647 -114.0456 123° Southeast 499 574 39,000  Level Salt Lake Center
Wed 06:51:40 PM 45.4883 -113.8822 124° Southeast 498 573 39,000  Level Salt Lake Center
Wed 06:52:42 PM 45.3967 -113.6847 123° Southeast 498 573 39,000  Level Salt Lake Center
Wed 06:53:44 PM 45.3208 -113.5256 124° Southeast 500 575 39,000  Level Salt Lake Center
Wed 06:54:45 PM 45.2481 -113.3694 123° Southeast 497 572 39,000  Level Salt Lake Center
Wed 06:55:47 PM 45.1633 -113.1886 124° Southeast 494 568 39,000  Level Salt Lake Center
Wed 06:56:48 PM 45.0897 -113.0331 124° Southeast 497 572 39,000  Level Salt Lake Center
Wed 06:57:50 PM 45.0047 -112.8525 124° Southeast 495 570 39,000  Level Salt Lake Center
Wed 06:58:52 PM 44.9308 -112.6994 124° Southeast 494 568 39,000  Level Salt Lake Center
Wed 06:59:53 PM 44.8581 -112.5467 124° Southeast 492 566 39,000  Level Salt Lake Center
Wed 07:00:55 PM 44.7717 -112.3686 124° Southeast 493 567 39,000  Level Salt Lake Center
Wed 07:01:56 PM 44.6983 -112.2172 124° Southeast 491 565 39,000  Level Salt Lake Center
Wed 07:02:58 PM 44.6133 -112.0422 124° Southeast 489 563 39,000  Level Salt Lake Center
Wed 07:03:59 PM 44.5400 -111.8933 125° Southeast 489 563 39,000  Level Salt Lake Center
Wed 07:05:01 PM 44.4550 -111.7228 125° Southeast 484 557 39,000  Level Salt Lake Center
Wed 07:06:02 PM 44.3836 -111.5783 125° Southeast 480 552 39,000  Level Salt Lake Center
Wed 07:07:04 PM 44.2989 -111.4106 125° Southeast 480 552 39,000  Level Salt Lake Center
Wed 07:08:06 PM 44.2250 -111.2656 125° Southeast 480 552 39,000  Level Salt Lake Center
Wed 07:09:07 PM 44.1394 -111.0961 125° Southeast 483 556 39,000  Level Salt Lake Center
Wed 07:10:09 PM 44.0644 -110.9519 126° Southeast 482 555 39,000  Level Salt Lake Center
Wed 07:11:10 PM 43.9778 -110.7811 125° Southeast 484 557 39,000  Level Salt Lake Center
Wed 07:12:12 PM 43.9039 -110.6356 125° Southeast 484 557 39,000  Level Salt Lake Center
Wed 07:13:13 PM 43.8278 -110.4900 126° Southeast 487 560 39,000  Level Salt Lake Center
Wed 07:14:15 PM 43.7408 -110.3225 126° Southeast 482 555 39,000  Level Salt Lake Center
Wed 07:15:16 PM 43.6642 -110.1794 127° Southeast 483 556 39,000  Level Salt Lake Center
Wed 07:16:18 PM 43.5764 -110.0117 126° Southeast 482 555 39,000  Level Salt Lake Center
Wed 07:17:19 PM 43.5006 -109.8639 125° Southeast 482 555 39,000  Level Salt Lake Center
Wed 07:18:21 PM 43.4272 -109.7317 127° Southeast 481 554 39,000  Level Salt Lake Center
Wed 07:19:22 PM 43.3481 -109.5828 126° Southeast 485 558 39,000  Level Salt Lake Center
Wed 07:20:24 PM 43.2528 -109.4047 126° Southeast 484 557 39,000  Level Salt Lake Center
Wed 07:21:25 PM 43.1736 -109.2592 127° Southeast 479 551 39,000  Level Salt Lake Center
Wed 07:22:27 PM 43.0942 -109.1111 126° Southeast 483 556 39,000  Level Salt Lake Center
Wed 07:23:28 PM 43.0133 -108.9656 127° Southeast 483 556 39,000  Level Salt Lake Center
Wed 07:24:30 PM 42.9256 -108.8056 127° Southeast 478 550 39,000 49 Level Salt Lake Center
Wed 07:25:31 PM 42.8475 -108.6639 127° Southeast 481 554 39,100  Climbing Salt Lake Center
Wed 07:26:33 PM 42.7689 -108.5211 127° Southeast 489 563 39,000 -49 Descending Salt Lake Center
Wed 07:27:34 PM 42.6775 -108.3558 127° Southeast 489 563 39,000  Level Salt Lake Center
Wed 07:28:36 PM 42.5975 -108.2133 127° Southeast 489 563 39,000  Level Salt Lake Center
Wed 07:29:38 PM 42.5053 -108.0492 127° Southeast 491 565 39,000  Level Salt Lake Center
Wed 07:30:39 PM 42.4267 -107.9086 127° Southeast 489 563 39,000  Level Salt Lake Center
Wed 07:31:42 PM 42.3347 -107.7486 128° Southeast 483 556 39,000  Level Salt Lake Center
Wed 07:32:43 PM 42.2567 -107.6119 128° Southeast 479 551 39,000  Level Salt Lake Center
Wed 07:33:18 PM 42.2050 -107.5178 127° Southeast 482 555 39,000  Level Denver Center
Wed 07:34:20 PM 42.1253 -107.3806 128° Southeast 485 558 39,000  Level Denver Center
Wed 07:35:22 PM 42.0211 -107.2344 134° Southeast 483 556 39,000  Level Denver Center
Wed 07:36:24 PM 41.9289 -107.1158 136° Southeast 480 552 39,000  Level Denver Center
Wed 07:37:26 PM 41.8364 -106.9942 136° Southeast 483 556 39,000  Level Denver Center
Wed 07:38:28 PM 41.7292 -106.8550 136° Southeast 482 555 39,000  Level Denver Center
Wed 07:39:30 PM 41.6369 -106.7375 136° Southeast 480 552 39,000  Level Denver Center
Wed 07:40:33 PM 41.5300 -106.5997 136° Southeast 478 550 39,000  Level Denver Center
Wed 07:41:35 PM 41.4303 -106.4736 137° Southeast 480 552 39,000  Level Denver Center
Wed 07:42:37 PM 41.3367 -106.3564 137° Southeast 483 556 39,000  Level Denver Center
Wed 07:43:39 PM 41.2347 -106.2256 136° Southeast 482 555 39,000  Level Denver Center
Wed 07:44:41 PM 41.1364 -106.1025 137° Southeast 483 556 39,000 -919 Level Denver Center
Wed 07:45:43 PM 41.0275 -105.9661 137° Southeast 484 557 37,100 -2,613 Descending Denver Center
Wed 07:46:45 PM 40.9331 -105.8467 136° Southeast 484 557 33,600 -3,484 Descending Denver Center
Wed 07:47:47 PM 40.8356 -105.7281 137° Southeast 480 552 29,900 -3,581 Descending Denver Center
Wed 07:48:49 PM 40.7406 -105.6097 137° Southeast 472 543 26,200 -3,968 Descending Denver Center
Wed 07:49:51 PM 40.6300 -105.4747 137° Southeast 454 522 21,700 -3,677 Descending Denver Center
Wed 07:50:53 PM 40.5536 -105.3464 128° Southeast 446 513 18,600 -2,081 Descending Denver Center
Wed 07:51:55 PM 40.4864 -105.2350 128° Southeast 396 456 17,400 -1,355 Descending Denver Center
Wed 07:52:57 PM 40.4056 -105.1675 148° Southeast 310 357 15,800 -1,548 Descending Denver Center
Wed 07:53:59 PM 40.3244 -105.1272 159° South 319 367 14,200 -1,306 Descending Denver Center
Wed 07:55:01 PM 40.2336 -105.1217 177° South 306 352 13,100 -581 Descending Denver Center
Wed 07:56:03 PM 40.1525 -105.1181 178° South 295 339 13,000 -48 Descending Denver Center
Wed 07:57:05 PM 40.0714 -105.1158 179° South 295 339 13,000 -484 Level Denver Center
Wed 07:58:07 PM 39.9978 -105.0978 169° South 257 296 12,000 -1,161 Descending Denver Center
Wed 07:59:09 PM 39.9442 -105.0522 147° Southeast 243 280 10,600 -1,392 Descending Denver Center
Wed 08:00:12 PM 39.9047 -104.9689 122° Southeast 250 288 9,100 -1,200 Descending Denver Center
Wed 08:01:14 PM 39.8711 -104.8975 122° Southeast 235 270 8,100 -1,065 Descending Denver Center
Wed 08:02:16 PM 39.8442 -104.8242 116° Southeast 211 243 6,900 -968 Descending Denver Center
Wed 08:03:18 PM 39.8411 -104.7669 94° East 157 181 6,100 -726 Descending Denver Center
Wed 08:04:20 PM 39.8414 -104.7189 90° East 138 159 5,400 -677 Descending Denver Center
Wed 08:06:00 PM 39.8500 -104.6667 North  Level FlightAware Approximate
Wed 08:13:00 PM 39.8617 -104.6732 North  Level Estimated

Login

Don't have an account? Register now (free) for customized features, flight alerts, and more!